createdAt,value
2023-02-21T00:01:56.954Z,97577.65
2023-02-21T00:04:50.061Z,97576.52
2023-02-21T00:07:43.124Z,97575.85
2023-02-21T00:10:37.681Z,97581.61
2023-02-21T00:13:27.693Z,97574.80
2023-02-21T00:16:18.446Z,97576.05
2023-02-21T00:19:08.631Z,97578.36
2023-02-21T00:21:58.848Z,97581.63
2023-02-21T00:24:49.215Z,97578.38
2023-02-21T00:27:39.371Z,97573.44
2023-02-21T00:30:33.863Z,97582.02
2023-02-21T00:33:31.703Z,97579.99
2023-02-21T00:36:25.032Z,97579.08
2023-02-21T00:39:16.650Z,97581.25
2023-02-21T00:42:06.678Z,97573.26
2023-02-21T00:44:57.108Z,97565.90
2023-02-21T00:47:47.320Z,97563.84
2023-02-21T00:50:37.615Z,97557.50
2023-02-21T00:53:28.959Z,97555.12
2023-02-21T00:56:21.938Z,97557.31
2023-02-21T00:59:15.204Z,97555.52
2023-02-21T01:02:05.943Z,97553.63
2023-02-21T01:04:56.453Z,97552.03
2023-02-21T01:07:44.478Z,97547.99
2023-02-21T01:10:38.160Z,97545.83
2023-02-21T01:13:29.717Z,97549.94
2023-02-21T01:16:19.265Z,97544.95
2023-02-21T01:19:09.736Z,97547.25
2023-02-21T01:21:59.701Z,97556.05
2023-02-21T01:24:49.858Z,97550.03
2023-02-21T01:27:42.869Z,97550.24
2023-02-21T01:30:33.755Z,97543.41
2023-02-21T01:33:25.565Z,97543.25
2023-02-21T01:36:17.302Z,97534.54
2023-02-21T01:39:13.721Z,97530.44
2023-02-21T01:42:07.104Z,97526.47
2023-02-21T01:44:59.389Z,97523.55
2023-02-21T01:47:49.658Z,97527.88
2023-02-21T01:50:47.286Z,97530.44
2023-02-21T01:53:40.609Z,97527.48
2023-02-21T01:56:34.618Z,97524.94
2023-02-21T01:59:25.453Z,97524.39
2023-02-21T02:02:21.319Z,97516.46
2023-02-21T02:05:12.915Z,97527.98
2023-02-21T02:08:03.823Z,97526.25
2023-02-21T02:10:54.191Z,97529.86
2023-02-21T02:13:49.018Z,97528.33
2023-02-21T02:16:31.309Z,97524.25
2023-02-21T02:19:43.709Z,97523.29
2023-02-21T02:22:52.392Z,97523.59
2023-02-21T02:25:42.312Z,97522.92
2023-02-21T02:28:34.485Z,97517.61
2023-02-21T02:31:34.766Z,97519.91
2023-02-21T02:34:42.290Z,97517.52
2023-02-21T02:37:23.604Z,97518.46
2023-02-21T02:40:02.414Z,97518.15
2023-02-21T02:42:48.728Z,97517.23
2023-02-21T02:45:27.622Z,97520.42
2023-02-21T02:48:04.785Z,97512.84
2023-02-21T02:50:37.875Z,97515.52
2023-02-21T02:53:10.516Z,97510.16
2023-02-21T02:55:50.607Z,97511.77
2023-02-21T02:58:25.566Z,97516.30
2023-02-21T03:01:10.238Z,97509.08
2023-02-21T03:04:07.167Z,97516.83
2023-02-21T03:06:55.782Z,97518.73
2023-02-21T03:09:35.690Z,97512.02
2023-02-21T03:12:11.698Z,97518.84
2023-02-21T03:14:51.977Z,97517.23
2023-02-21T03:17:31.760Z,97509.97
2023-02-21T03:20:06.553Z,97506.48
2023-02-21T03:22:39.589Z,97504.90
2023-02-21T03:25:13.027Z,97508.53
2023-02-21T03:27:46.312Z,97512.22
2023-02-21T03:30:29.728Z,97515.70
2023-02-21T03:33:10.461Z,97515.83
2023-02-21T03:35:46.420Z,97517.18
2023-02-21T03:38:24.619Z,97517.69
2023-02-21T03:40:59.901Z,97519.70
2023-02-21T03:43:32.602Z,97524.98
2023-02-21T03:46:06.684Z,97526.55
2023-02-21T03:48:41.651Z,97518.27
2023-02-21T03:51:22.182Z,97515.85
2023-02-21T03:53:55.125Z,97513.02
2023-02-21T03:56:41.502Z,97511.50
2023-02-21T03:59:34.669Z,97511.41
2023-02-21T04:02:07.791Z,97520.45
2023-02-21T04:04:42.105Z,97515.80
2023-02-21T04:07:19.385Z,97508.67
2023-02-21T04:09:52.032Z,97508.31
2023-02-21T04:12:30.771Z,97508.75
2023-02-21T04:15:03.141Z,97510.95
2023-02-21T04:17:35.650Z,97503.89
2023-02-21T04:20:10.538Z,97508.42
2023-02-21T04:23:02.862Z,97509.29
2023-02-21T04:25:39.417Z,97514.84
2023-02-21T04:28:18.605Z,97517.34
2023-02-21T04:30:50.889Z,97516.96
2023-02-21T04:33:23.424Z,97512.77
2023-02-21T04:35:55.667Z,97517.54
2023-02-21T04:38:31.204Z,97516.98
2023-02-21T04:41:04.190Z,97510.70
2023-02-21T04:43:36.368Z,97512.11
2023-02-21T04:46:08.816Z,97516.11
2023-02-21T04:48:41.029Z,97519.59
2023-02-21T04:51:16.124Z,97511.31
2023-02-21T04:53:50.225Z,97506.08
2023-02-21T04:56:25.929Z,97505.31
2023-02-21T04:58:59.025Z,97506.31
2023-02-21T05:01:32.837Z,97511.37
2023-02-21T05:04:05.615Z,97510.21
2023-02-21T05:06:37.843Z,97514.46
2023-02-21T05:09:12.623Z,97513.09
2023-02-21T05:11:44.783Z,97506.89
2023-02-21T05:14:18.323Z,97507.39
2023-02-21T05:16:50.591Z,97500.99
2023-02-21T05:19:27.582Z,97506.44
2023-02-21T05:22:02.508Z,97502.47
2023-02-21T05:24:35.288Z,97505.08
2023-02-21T05:27:11.559Z,97503.92
2023-02-21T05:29:43.875Z,97506.61
2023-02-21T05:32:16.641Z,97499.90
2023-02-21T05:34:49.189Z,97500.27
2023-02-21T05:37:22.274Z,97502.18
2023-02-21T05:40:01.953Z,97501.85
2023-02-21T05:42:34.578Z,97506.80
2023-02-21T05:45:07.594Z,97509.46
2023-02-21T05:47:40.115Z,97514.17
2023-02-21T05:50:12.901Z,97521.98
2023-02-21T05:52:48.955Z,97522.80
2023-02-21T05:55:21.208Z,97519.27
2023-02-21T05:57:53.517Z,97530.86
2023-02-21T06:00:28.296Z,97531.08
2023-02-21T06:03:01.989Z,97531.67
2023-02-21T06:05:36.889Z,97531.14
2023-02-21T06:08:11.828Z,97532.59
2023-02-21T06:10:45.253Z,97527.69
2023-02-21T06:13:17.842Z,97518.58
2023-02-21T06:15:50.453Z,97515.23
2023-02-21T06:18:22.782Z,97516.36
2023-02-21T06:20:54.978Z,97522.06
2023-02-21T06:23:27.444Z,97519.63
2023-02-21T06:25:59.697Z,97518.45
2023-02-21T06:28:32.828Z,97526.08
2023-02-21T06:31:06.604Z,97527.80
2023-02-21T06:33:39.238Z,97529.70
2023-02-21T06:36:15.054Z,97529.95
2023-02-21T06:38:51.287Z,97530.52
2023-02-21T06:41:26.326Z,97531.18
2023-02-21T06:43:59.953Z,97535.71
2023-02-21T06:46:33.236Z,97537.36
2023-02-21T06:49:05.654Z,97535.73
2023-02-21T06:51:39.404Z,97540.30
2023-02-21T06:54:12.209Z,97550.98
2023-02-21T06:56:44.734Z,97550.59
2023-02-21T06:59:18.196Z,97539.94
2023-02-21T07:01:50.536Z,97543.22
2023-02-21T07:04:22.986Z,97545.27
2023-02-21T07:06:55.410Z,97547.61
2023-02-21T07:09:27.667Z,97554.35
2023-02-21T07:11:59.870Z,97557.65
2023-02-21T07:14:32.151Z,97553.91
2023-02-21T07:17:04.370Z,97553.66
2023-02-21T07:19:38.755Z,97554.73
2023-02-21T07:22:11.012Z,97555.35
2023-02-21T07:24:43.258Z,97560.37
2023-02-21T07:27:15.738Z,97558.24
2023-02-21T07:29:51.700Z,97562.94
2023-02-21T07:34:56.390Z,97570.79
2023-02-21T07:37:28.890Z,97578.63
2023-02-21T07:40:02.040Z,97576.18
2023-02-21T07:42:34.409Z,97583.00
2023-02-21T07:45:07.408Z,97585.84
2023-02-21T07:47:39.928Z,97592.63
2023-02-21T07:50:13.416Z,97592.90
2023-02-21T07:52:46.815Z,97587.02
2023-02-21T07:55:21.839Z,97594.13
2023-02-21T07:57:54.663Z,97601.14
2023-02-21T08:00:27.651Z,97603.65
2023-02-21T08:03:00.608Z,97604.16
2023-02-21T08:05:33.723Z,97609.75
2023-02-21T08:08:08.198Z,97615.75
2023-02-21T08:10:40.737Z,97614.82
2023-02-21T08:13:13.332Z,97610.40
2023-02-21T08:15:45.888Z,97616.91
2023-02-21T08:18:24.672Z,97622.49
2023-02-21T08:20:58.009Z,97623.36
2023-02-21T08:23:30.456Z,97622.83
2023-02-21T08:26:03.866Z,97624.19
2023-02-21T08:28:37.393Z,97619.35
2023-02-21T08:31:10.076Z,97623.04
2023-02-21T08:33:42.365Z,97625.84
2023-02-21T08:36:15.049Z,97630.19
2023-02-21T08:38:47.973Z,97631.08
2023-02-21T08:41:20.362Z,97636.64
2023-02-21T08:43:52.666Z,97635.08
2023-02-21T08:46:24.980Z,97639.79
2023-02-21T08:48:57.525Z,97643.81
2023-02-21T08:51:31.278Z,97645.83
2023-02-21T08:54:04.478Z,97644.03
2023-02-21T08:56:37.312Z,97646.14
2023-02-21T08:59:09.909Z,97642.27
2023-02-21T09:01:42.173Z,97634.80
2023-02-21T09:04:14.346Z,97636.17
2023-02-21T09:06:46.585Z,97639.59
2023-02-21T09:09:18.782Z,97638.99
2023-02-21T09:11:51.303Z,97644.52
2023-02-21T09:14:23.556Z,97647.41
2023-02-21T09:16:55.784Z,97655.59
2023-02-21T09:19:28.186Z,97655.42
2023-02-21T09:22:01.825Z,97665.09
2023-02-21T09:24:34.046Z,97673.53
2023-02-21T09:27:07.330Z,97673.44
2023-02-21T09:29:46.295Z,97677.80
2023-02-21T09:32:18.919Z,97674.52
2023-02-21T09:34:51.152Z,97684.00
2023-02-21T09:37:23.331Z,97688.27
2023-02-21T09:39:55.657Z,97688.66
2023-02-21T09:42:32.739Z,97694.95
2023-02-21T09:45:05.381Z,97701.39
2023-02-21T09:47:40.281Z,97705.13
2023-02-21T09:50:17.927Z,97702.74
2023-02-21T09:52:50.780Z,97698.86
2023-02-21T09:55:30.905Z,97689.44
2023-02-21T09:58:03.880Z,97677.81
2023-02-21T10:00:39.169Z,97668.27
2023-02-21T10:03:35.238Z,97673.27
2023-02-21T10:06:15.227Z,97683.03
2023-02-21T10:08:55.085Z,97695.23
2023-02-21T10:11:38.107Z,97691.44
2023-02-21T10:14:21.675Z,97690.57
2023-02-21T10:17:02.220Z,97685.38
2023-02-21T10:19:40.392Z,97690.94
2023-02-21T10:22:20.641Z,97699.34
2023-02-21T10:24:54.171Z,97704.02
2023-02-21T10:27:32.050Z,97702.20
2023-02-21T10:30:10.454Z,97695.69
2023-02-21T10:32:43.753Z,97679.05
2023-02-21T10:35:15.963Z,97678.62
2023-02-21T10:37:52.303Z,97684.73
2023-02-21T10:40:34.570Z,97673.17
2023-02-21T10:43:15.006Z,97668.73
2023-02-21T10:45:52.045Z,97667.13
2023-02-21T10:48:29.547Z,97672.87
2023-02-21T10:51:11.238Z,97666.96
2023-02-21T10:53:45.913Z,97667.29
2023-02-21T10:56:28.314Z,97667.89
2023-02-21T10:59:05.609Z,97662.52
2023-02-21T11:01:44.102Z,97649.36
2023-02-21T11:04:29.577Z,97638.89
2023-02-21T11:07:06.539Z,97631.52
2023-02-21T11:09:44.466Z,97624.90
2023-02-21T11:12:26.068Z,97641.52
2023-02-21T11:15:19.207Z,97654.89
2023-02-21T11:18:14.269Z,97651.06
2023-02-21T11:20:47.813Z,97681.14
2023-02-21T11:23:28.800Z,97701.34
2023-02-21T11:26:09.381Z,97712.46
2023-02-21T11:28:44.592Z,97721.59
2023-02-21T11:31:29.315Z,97730.86
2023-02-21T11:34:04.387Z,97735.99
2023-02-21T11:36:39.688Z,97736.14
2023-02-21T11:39:19.002Z,97731.07
2023-02-21T11:41:56.225Z,97743.60
2023-02-21T11:44:31.616Z,97738.38
2023-02-21T11:47:14.164Z,97740.30
2023-02-21T11:49:54.675Z,97744.39
2023-02-21T11:52:30.102Z,97745.81
2023-02-21T11:55:02.701Z,97739.04
2023-02-21T11:57:45.932Z,97732.39
2023-02-21T12:00:28.418Z,97731.44
2023-02-21T12:03:33.814Z,97732.09
2023-02-21T12:06:13.990Z,97731.52
2023-02-21T12:08:53.487Z,97726.52
2023-02-21T12:11:37.533Z,97733.40
2023-02-21T12:14:23.466Z,97729.33
2023-02-21T12:17:09.631Z,97730.12
2023-02-21T12:19:58.954Z,97730.81
2023-02-21T12:22:46.364Z,97718.73
2023-02-21T12:25:26.501Z,97710.41
2023-02-21T12:28:07.580Z,97696.56
2023-02-21T12:30:55.973Z,97683.43
2023-02-21T12:33:43.303Z,97681.48
2023-02-21T12:36:45.330Z,97685.05
2023-02-21T12:39:31.789Z,97667.25
2023-02-21T12:42:26.849Z,97667.86
2023-02-21T12:45:08.930Z,97674.27
2023-02-21T12:47:54.828Z,97679.63
2023-02-21T12:50:33.040Z,97673.79
2023-02-21T12:53:13.680Z,97654.29
2023-02-21T12:55:53.551Z,97614.83
2023-02-21T12:58:32.013Z,97596.52
2023-02-21T13:01:10.755Z,97609.79
2023-02-21T13:03:56.831Z,97608.73
2023-02-21T13:06:33.958Z,97602.92
2023-02-21T13:09:22.917Z,97608.77
2023-02-21T13:12:03.181Z,97584.22
2023-02-21T13:14:42.502Z,97582.23
2023-02-21T13:17:17.209Z,97594.77
2023-02-21T13:19:52.016Z,97603.17
2023-02-21T13:23:16.248Z,97625.41
2023-02-21T13:26:22.441Z,97619.88
2023-02-21T13:28:57.327Z,97625.36
2023-02-21T13:31:38.450Z,97628.88
2023-02-21T13:34:12.733Z,97631.48
2023-02-21T13:36:49.389Z,97621.48
2023-02-21T13:39:31.923Z,97610.14
2023-02-21T13:42:10.472Z,97603.12
2023-02-21T13:44:46.502Z,97611.09
2023-02-21T13:47:20.968Z,97597.85
2023-02-21T13:49:57.686Z,97599.13
2023-02-21T13:52:59.305Z,97593.01
2023-02-21T13:55:33.063Z,97587.55
2023-02-21T13:58:31.758Z,97602.63
2023-02-21T14:01:34.867Z,97624.83
2023-02-21T14:04:44.320Z,97638.42
2023-02-21T14:07:16.723Z,97648.83
2023-02-21T14:09:51.212Z,97660.23
2023-02-21T14:12:28.150Z,97647.48
2023-02-21T14:15:09.361Z,97640.15
2023-02-21T14:17:43.816Z,97635.75
2023-02-21T14:20:22.820Z,97642.31
2023-02-21T14:22:59.273Z,97645.73
2023-02-21T14:25:37.187Z,97659.30
2023-02-21T14:28:42.463Z,97667.02
2023-02-21T14:31:16.241Z,97685.77
2023-02-21T14:33:48.813Z,97698.73
2023-02-21T14:36:21.383Z,97703.84
2023-02-21T14:38:56.042Z,97711.21
2023-02-21T14:41:48.240Z,97720.70
2023-02-21T14:44:29.457Z,97726.68
2023-02-21T14:47:36.256Z,97731.45
2023-02-21T14:50:32.410Z,97743.19
2023-02-21T14:53:41.724Z,97747.55
2023-02-21T14:56:46.809Z,97760.70
2023-02-21T14:59:35.525Z,97764.52
2023-02-21T15:02:19.035Z,97771.85
2023-02-21T15:05:05.227Z,97773.08
2023-02-21T15:07:45.939Z,97779.10
2023-02-21T15:10:26.124Z,97783.03
2023-02-21T15:13:02.304Z,97786.81
2023-02-21T15:15:36.940Z,97796.69
2023-02-21T15:18:11.186Z,97798.86
2023-02-21T15:20:44.778Z,97804.48
2023-02-21T15:23:19.420Z,97809.28
2023-02-21T15:25:59.194Z,97813.38
2023-02-21T15:28:32.988Z,97816.01
2023-02-21T15:31:08.147Z,97823.19
2023-02-21T15:33:42.356Z,97824.86
2023-02-21T15:36:22.133Z,97826.57
2023-02-21T15:39:02.738Z,97831.38
2023-02-21T15:41:38.381Z,97836.63
2023-02-21T15:44:16.022Z,97838.34
2023-02-21T15:46:59.012Z,97841.34
2023-02-21T15:49:35.219Z,97844.41
2023-02-21T15:52:08.369Z,97845.96
2023-02-21T15:54:40.553Z,97848.23
2023-02-21T15:57:29.424Z,97849.02
2023-02-21T16:00:24.252Z,97848.68
2023-02-21T16:03:29.917Z,97854.06
2023-02-21T16:06:19.410Z,97857.54
2023-02-21T16:09:02.294Z,97862.23
2023-02-21T16:11:47.908Z,97867.09
2023-02-21T16:14:24.582Z,97874.58
2023-02-21T16:17:08.541Z,97885.18
2023-02-21T16:19:41.559Z,97888.88
2023-02-21T16:22:29.239Z,97894.58
2023-02-21T16:25:29.901Z,97891.63
2023-02-21T16:28:03.267Z,97893.33
2023-02-21T16:30:39.349Z,97897.14
2023-02-21T16:33:14.573Z,97899.41
2023-02-21T16:35:47.166Z,97901.23
2023-02-21T16:38:21.565Z,97908.63
2023-02-21T16:40:54.501Z,97916.58
2023-02-21T16:43:28.628Z,97927.44
2023-02-21T16:46:01.148Z,97927.89
2023-02-21T16:48:34.097Z,97931.42
2023-02-21T16:51:09.027Z,97934.77
2023-02-21T16:53:41.436Z,97939.02
2023-02-21T16:56:13.992Z,97941.89
2023-02-21T16:58:48.294Z,97946.23
2023-02-21T17:01:28.519Z,97951.33
2023-02-21T17:04:02.578Z,97959.42
2023-02-21T17:06:35.790Z,97963.06
2023-02-21T17:09:09.152Z,97968.50
2023-02-21T17:11:41.479Z,97968.62
2023-02-21T17:14:13.666Z,97971.89
2023-02-21T17:16:46.165Z,97975.91
2023-02-21T17:19:21.260Z,97975.73
2023-02-21T17:21:54.814Z,97982.58
2023-02-21T17:24:27.199Z,97986.48
2023-02-21T17:27:01.282Z,97989.33
2023-02-21T17:29:34.270Z,97991.50
2023-02-21T17:32:08.896Z,97996.81
2023-02-21T17:34:41.294Z,98001.34
2023-02-21T17:37:13.853Z,98005.04
2023-02-21T17:39:46.334Z,98009.43
2023-02-21T17:42:18.874Z,98014.64
2023-02-21T17:44:52.021Z,98021.36
2023-02-21T17:47:25.435Z,98024.33
2023-02-21T17:50:02.484Z,98026.05
2023-02-21T17:52:35.694Z,98026.37
2023-02-21T17:55:09.147Z,98030.17
2023-02-21T17:57:41.554Z,98029.95
2023-02-21T18:00:23.211Z,98029.38
2023-02-21T18:02:57.456Z,98030.32
2023-02-21T18:05:30.479Z,98036.77
2023-02-21T18:08:02.847Z,98037.91
2023-02-21T18:10:35.149Z,98041.54
2023-02-21T18:13:07.400Z,98041.13
2023-02-21T18:15:40.105Z,98034.75
2023-02-21T18:18:12.429Z,98036.73
2023-02-21T18:20:46.001Z,98040.41
2023-02-21T18:23:18.866Z,98045.77
2023-02-21T18:25:51.350Z,98048.77
2023-02-21T18:28:23.775Z,98048.50
2023-02-21T18:30:57.553Z,98049.95
2023-02-21T18:33:29.862Z,98050.98
2023-02-21T18:36:02.927Z,98051.76
2023-02-21T18:38:35.127Z,98050.98
2023-02-21T18:41:12.397Z,98053.82
2023-02-21T18:43:44.998Z,98056.88
2023-02-21T18:46:20.072Z,98055.66
2023-02-21T18:48:53.043Z,98049.48
2023-02-21T18:51:25.990Z,98049.40
2023-02-21T18:53:58.198Z,98052.85
2023-02-21T18:56:30.660Z,98053.55
2023-02-21T18:59:02.922Z,98056.44
2023-02-21T19:01:35.111Z,98059.09
2023-02-21T19:04:08.112Z,98062.79
2023-02-21T19:06:40.781Z,98066.10
2023-02-21T19:09:13.579Z,98070.48
2023-02-21T19:11:46.229Z,98069.04
2023-02-21T19:14:18.693Z,98070.66
2023-02-21T19:16:53.574Z,98072.46
2023-02-21T19:19:26.039Z,98077.30
2023-02-21T19:21:58.456Z,98074.34
2023-02-21T19:24:30.944Z,98074.23
2023-02-21T19:27:03.662Z,98076.71
2023-02-21T19:29:35.782Z,98078.48
2023-02-21T19:32:08.412Z,98076.80
2023-02-21T19:34:40.783Z,98086.86
2023-02-21T19:37:13.372Z,98089.34
2023-02-21T19:39:46.201Z,98091.21
2023-02-21T19:42:21.308Z,98092.89
2023-02-21T19:44:54.103Z,98094.09
2023-02-21T19:47:29.681Z,98096.05
2023-02-21T19:50:02.669Z,98093.89
2023-02-21T19:52:34.956Z,98103.70
2023-02-21T19:55:08.280Z,98107.36
2023-02-21T19:57:40.457Z,98111.80
2023-02-21T20:00:15.631Z,98111.36
2023-02-21T20:02:47.877Z,98118.85
2023-02-21T20:05:20.406Z,98118.39
2023-02-21T20:07:53.003Z,98118.46
2023-02-21T20:10:26.550Z,98119.75
2023-02-21T20:13:06.420Z,98119.88
2023-02-21T20:15:38.945Z,98118.33
2023-02-21T20:18:11.113Z,98120.43
2023-02-21T20:20:47.345Z,98122.20
2023-02-21T20:23:19.679Z,98129.90
2023-02-21T20:25:52.050Z,98132.67
2023-02-21T20:28:24.167Z,98133.05
2023-02-21T20:30:56.453Z,98135.89
2023-02-21T20:33:28.809Z,98141.59
2023-02-21T20:36:01.164Z,98143.80
2023-02-21T20:38:33.679Z,98144.88
2023-02-21T20:41:08.757Z,98144.91
2023-02-21T20:43:40.968Z,98145.81
2023-02-21T20:46:16.489Z,98144.00
2023-02-21T20:48:49.096Z,98146.67
2023-02-21T20:51:33.029Z,98145.48
2023-02-21T20:54:05.832Z,98146.52
2023-02-21T20:56:39.636Z,98151.38
2023-02-21T20:59:17.403Z,98150.46
2023-02-21T21:01:50.519Z,98151.33
2023-02-21T21:04:32.343Z,98153.73
2023-02-21T21:07:06.596Z,98154.86
2023-02-21T21:09:40.858Z,98155.14
2023-02-21T21:12:17.060Z,98158.42
2023-02-21T21:14:53.270Z,98159.81
2023-02-21T21:17:26.334Z,98164.20
2023-02-21T21:19:59.210Z,98163.84
2023-02-21T21:22:31.972Z,98165.52
2023-02-21T21:25:04.795Z,98169.26
2023-02-21T21:27:37.701Z,98171.13
2023-02-21T21:30:18.267Z,98169.96
2023-02-21T21:32:48.930Z,98172.50
2023-02-21T21:35:29.971Z,98171.98
2023-02-21T21:38:03.692Z,98176.23
2023-02-21T21:40:39.278Z,98174.18
2023-02-21T21:43:12.332Z,98177.44
2023-02-21T21:45:45.280Z,98181.14
2023-02-21T21:48:19.225Z,98183.14
2023-02-21T21:50:51.946Z,98185.66
2023-02-21T21:53:24.227Z,98191.80
2023-02-21T21:56:00.431Z,98189.88
2023-02-21T21:58:33.834Z,98192.16
2023-02-21T22:01:06.994Z,98196.95
2023-02-21T22:03:39.695Z,98197.31
2023-02-21T22:06:14.850Z,98200.57
2023-02-21T22:08:47.088Z,98201.11
2023-02-21T22:11:21.263Z,98199.33
2023-02-21T22:13:54.880Z,98203.09
2023-02-21T22:16:27.764Z,98205.43
2023-02-21T22:19:02.856Z,98206.27
2023-02-21T22:21:35.555Z,98202.95
2023-02-21T22:24:09.822Z,98202.05
2023-02-21T22:26:44.851Z,98203.85
2023-02-21T22:29:20.190Z,98206.56
2023-02-21T22:31:53.252Z,98209.10
2023-02-21T22:34:26.227Z,98212.45
2023-02-21T22:37:00.227Z,98211.17
2023-02-21T22:39:32.944Z,98210.06
2023-02-21T22:42:08.962Z,98210.30
2023-02-21T22:44:46.321Z,98212.57
2023-02-21T22:47:20.331Z,98217.43
2023-02-21T22:50:01.236Z,98221.17
2023-02-21T22:52:33.926Z,98223.89
2023-02-21T22:55:07.394Z,98222.72
2023-02-21T22:57:39.738Z,98223.36
2023-02-21T23:00:20.405Z,98227.52
2023-02-21T23:02:56.255Z,98224.85
2023-02-21T23:05:29.061Z,98229.36
2023-02-21T23:08:01.374Z,98233.00
2023-02-21T23:10:34.489Z,98234.30
2023-02-21T23:13:14.398Z,98234.05
2023-02-21T23:15:54.724Z,98238.01
2023-02-21T23:18:29.230Z,98239.14
2023-02-21T23:21:10.034Z,98238.83
2023-02-21T23:23:42.474Z,98239.09
2023-02-21T23:26:21.660Z,98244.14
2023-02-21T23:28:54.042Z,98242.15
2023-02-21T23:31:26.534Z,98243.80
2023-02-21T23:33:58.818Z,98248.42
2023-02-21T23:36:34.336Z,98249.27
2023-02-21T23:39:09.286Z,98248.26
2023-02-21T23:41:42.537Z,98248.06
2023-02-21T23:44:16.219Z,98251.02
2023-02-21T23:46:50.383Z,98250.19
2023-02-21T23:49:26.304Z,98255.80
2023-02-21T23:52:01.346Z,98257.67
2023-02-21T23:54:35.932Z,98253.75
2023-02-21T23:57:08.182Z,98256.73
2023-02-21T23:59:40.604Z,98255.20
